Time;durP1;ratioP1;P1;durP2;ratioP2;P2;SDS_P1;SDS_P2;PMS_P1;PMS_P2;Temp;Humidity;BMP_temperature;BMP_pressure;BME280_temperature;BME280_humidity;BME280_pressure;Samples;Min_cycle;Max_cycle;Signal;HPM_P1;HPM_P2
2022/05/06 05:24:50;;;;;;;6.05;1.60;;;16.70;65.70;;;;;;5476381;23;20055;-72
2022/05/06 05:27:16;;;;;;;7.00;2.13;;;17.20;64.80;;;;;;4934018;29;20052;-79
2022/05/06 05:29:42;;;;;;;6.97;1.50;;;17.40;64.10;;;;;;4918244;29;20387;-73
2022/05/06 05:32:09;;;;;;;9.75;1.30;;;17.60;63.70;;;;;;4918358;29;20072;-74
2022/05/06 05:34:35;;;;;;;8.95;1.70;;;17.70;63.30;;;;;;4918333;29;20447;-72
2022/05/06 05:37:01;;;;;;;6.05;1.20;;;17.90;63.00;;;;;;4932330;29;20118;-74
2022/05/06 05:39:31;;;;;;;5.95;1.42;;;18.00;63.50;;;;;;4938075;29;20419;-84
2022/05/06 05:42:00;;;;;;;4.22;1.33;;;18.10;62.80;;;;;;4938383;29;20349;-77
2022/05/06 05:50:00;;;;;;;15.07;3.13;;;18.40;63.20;;;;;;4933159;29;20040;-80
2022/05/06 05:52:26;;;;;;;10.00;1.83;;;18.50;63.20;;;;;;4918580;29;20050;-78
2022/05/06 05:54:52;;;;;;;12.05;1.70;;;18.60;63.10;;;;;;4919309;29;20040;-79
2022/05/06 05:57:17;;;;;;;12.57;2.80;;;18.70;63.10;;;;;;4917967;29;20128;-80
2022/05/06 05:59:47;;;;;;;13.13;2.35;;;18.80;62.80;;;;;;4918293;29;20044;-79
2022/05/06 06:02:17;;;;;;;10.02;2.13;;;18.90;62.60;;;;;;4896533;29;20158;-82
2022/05/06 06:04:43;;;;;;;8.00;2.10;;;19.10;62.60;;;;;;4899791;29;20044;-76
2022/05/06 06:07:10;;;;;;;15.38;2.53;;;19.10;62.50;;;;;;4900181;29;20207;-78
2022/05/06 06:09:36;;;;;;;12.70;2.13;;;19.10;62.50;;;;;;4899879;29;20041;-79
2022/05/06 06:12:02;;;;;;;19.52;2.25;;;19.20;62.60;;;;;;4908490;29;20377;-79
2022/05/06 06:14:27;;;;;;;22.65;3.28;;;19.30;62.70;;;;;;4934678;29;20135;-78
2022/05/06 06:16:53;;;;;;;18.05;2.55;;;19.40;62.90;;;;;;4920777;29;20131;-79
2022/05/06 06:19:19;;;;;;;11.60;2.63;;;19.40;63.00;;;;;;4937427;29;20048;-79
2022/05/06 06:21:45;;;;;;;11.70;2.88;;;19.40;63.20;;;;;;4935587;29;20333;-78
2022/05/06 06:24:11;;;;;;;12.88;3.05;;;19.40;63.60;;;;;;4933514;29;20044;-78
2022/05/06 06:26:36;;;;;;;12.73;3.15;;;19.30;63.40;;;;;;4918247;29;20067;-79
2022/05/06 06:29:03;;;;;;;12.73;3.38;;;19.20;63.40;;;;;;4917945;29;20056;-78
2022/05/06 06:31:32;;;;;;;13.57;3.03;;;19.10;63.40;;;;;;4918520;29;20054;-78
2022/05/06 06:33:59;;;;;;;18.85;3.80;;;19.10;63.40;;;;;;4919973;29;20059;-78
2022/05/06 06:36:25;;;;;;;23.80;3.97;;;19.10;63.70;;;;;;4936821;29;20058;-78
2022/05/06 06:38:51;;;;;;;15.82;3.40;;;19.10;63.70;;;;;;4937777;29;20358;-78
2022/05/06 06:41:18;;;;;;;8.55;2.60;;;19.10;63.80;;;;;;4937712;29;20098;-78
2022/05/06 06:43:44;;;;;;;9.57;2.70;;;19.10;63.70;;;;;;4937683;29;20051;-77
2022/05/06 06:46:09;;;;;;;14.32;2.72;;;19.10;63.70;;;;;;4936940;29;20074;-72
2022/05/06 06:48:35;;;;;;;13.27;3.10;;;19.00;63.50;;;;;;4918701;29;20080;-73
2022/05/06 06:51:01;;;;;;;15.75;2.95;;;19.00;63.70;;;;;;4918572;29;20074;-80
2022/05/06 06:53:27;;;;;;;15.05;2.15;;;18.90;63.80;;;;;;4917100;29;20048;-79
2022/05/06 06:55:56;;;;;;;6.70;2.00;;;18.90;63.90;;;;;;4918553;29;20127;-74
2022/05/06 06:58:22;;;;;;;16.92;2.50;;;18.90;64.00;;;;;;4918203;29;20044;-76
2022/05/06 07:00:48;;;;;;;15.02;2.50;;;18.90;64.10;;;;;;4920284;29;20048;-78
2022/05/06 07:03:15;;;;;;;12.10;1.80;;;18.90;64.40;;;;;;4936633;29;20102;-79
2022/05/06 07:11:52;;;;;;;16.15;2.10;;;18.80;64.20;;;;;;4919421;29;20055;-78
2022/05/06 07:14:02;;;;;;;18.95;3.10;;;18.60;62.70;;;;;;4937071;29;20334;-80
2022/05/06 07:16:28;;;;;;;14.85;2.17;;;18.40;62.90;;;;;;4923380;29;20044;-78
2022/05/06 07:18:54;;;;;;;11.05;2.92;;;18.40;64.10;;;;;;4917081;29;20052;-80
2022/05/06 07:21:20;;;;;;;10.25;2.10;;;18.40;64.60;;;;;;4901203;29;20063;-82
2022/05/06 07:23:45;;;;;;;13.25;2.13;;;18.40;64.70;;;;;;4917120;29;20046;-82
2022/05/06 07:26:12;;;;;;;12.35;2.75;;;18.40;64.80;;;;;;4917003;29;20475;-81
2022/05/06 07:28:38;;;;;;;12.60;2.72;;;18.50;64.80;;;;;;4901796;29;20060;-84
2022/05/06 07:31:10;;;;;;;12.57;2.30;;;18.50;64.70;;;;;;4921236;29;20074;-86
2022/05/06 07:33:44;;;;;;;17.90;2.88;;;18.50;64.70;;;;;;4907566;29;20472;-83
2022/05/06 07:36:12;;;;;;;14.82;2.90;;;18.50;64.50;;;;;;4923274;29;20048;-84
2022/05/06 07:38:41;;;;;;;7.60;2.33;;;18.60;64.10;;;;;;4908252;29;20087;-78
2022/05/06 07:41:07;;;;;;;12.70;2.92;;;18.50;63.60;;;;;;4923234;29;20067;-79
2022/05/06 07:43:34;;;;;;;9.57;3.60;;;18.60;63.30;;;;;;4919993;29;20056;-78
2022/05/06 07:46:00;;;;;;;8.63;3.53;;;18.60;62.60;;;;;;4920380;29;20360;-73
2022/05/06 07:48:25;;;;;;;11.90;3.95;;;18.50;62.50;;;;;;4921175;29;20040;-73
2022/05/06 07:50:51;;;;;;;8.40;2.70;;;18.30;62.40;;;;;;4921069;29;20032;-73
2022/05/06 07:53:17;;;;;;;8.32;3.17;;;18.10;62.60;;;;;;4921282;29;20055;-73
2022/05/06 07:55:43;;;;;;;8.30;2.67;;;18.00;62.90;;;;;;4921235;29;20048;-73
2022/05/06 07:58:09;;;;;;;9.57;2.80;;;17.90;63.00;;;;;;4926056;29;20364;-74
2022/05/06 08:00:36;;;;;;;7.93;2.28;;;17.80;63.20;;;;;;4939228;29;20193;-73
2022/05/06 08:05:47;;;;;;;9.10;2.58;;;17.60;63.60;;;;;;4920884;29;20060;-73
2022/05/06 08:08:14;;;;;;;5.18;2.40;;;17.60;63.70;;;;;;4921230;29;20364;-74
2022/05/06 08:10:40;;;;;;;5.55;2.00;;;17.50;63.80;;;;;;4921177;29;20088;-73
2022/05/06 08:13:06;;;;;;;9.48;2.30;;;17.50;63.80;;;;;;4921089;29;20054;-74
2022/05/06 08:15:32;;;;;;;5.95;2.00;;;17.50;63.80;;;;;;4922046;29;20135;-73
2022/05/06 08:17:58;;;;;;;3.50;2.33;;;17.50;64.00;;;;;;4937295;29;20063;-73
2022/05/06 08:20:24;;;;;;;3.42;1.98;;;17.40;63.90;;;;;;4939860;29;20425;-73
2022/05/06 08:22:49;;;;;;;5.00;2.22;;;17.40;63.90;;;;;;4939949;29;20122;-73
2022/05/06 08:25:15;;;;;;;3.03;2.63;;;17.40;64.70;;;;;;4922829;29;20055;-73
2022/05/06 08:27:43;;;;;;;2.50;1.85;;;17.40;64.00;;;;;;4939458;29;20063;-74
2022/05/06 08:30:10;;;;;;;4.78;2.03;;;17.30;64.10;;;;;;4939960;29;20142;-74
2022/05/06 08:32:36;;;;;;;4.57;2.53;;;17.30;64.20;;;;;;4930381;29;20158;-73
2022/05/06 08:35:03;;;;;;;2.55;2.15;;;17.30;64.30;;;;;;4920788;29;20079;-73
2022/05/06 08:37:29;;;;;;;2.90;2.15;;;17.40;64.10;;;;;;4920508;29;20102;-73
2022/05/06 08:39:55;;;;;;;2.60;1.67;;;17.30;64.10;;;;;;4920486;29;20350;-74
2022/05/06 08:42:22;;;;;;;2.28;1.83;;;17.40;64.30;;;;;;4919562;29;20055;-73
2022/05/06 08:53:05;;;;;;;2.75;2.10;;;17.40;64.50;;;;;;4939447;29;20051;-73
2022/05/06 08:55:32;;;;;;;2.55;1.80;;;17.40;64.30;;;;;;4939137;29;20417;-73
2022/05/06 08:57:58;;;;;;;2.65;2.33;;;17.40;64.20;;;;;;4939341;29;20110;-73
2022/05/06 09:00:27;;;;;;;3.67;2.40;;;17.40;64.30;;;;;;4939180;29;20044;-73
2022/05/06 09:02:53;;;;;;;2.92;1.42;;;17.40;64.40;;;;;;4938432;29;20055;-73
2022/05/06 09:05:20;;;;;;;4.28;1.35;;;17.50;64.70;;;;;;4938707;29;20055;-72
2022/05/06 09:07:57;;;;;;;5.22;1.50;;;17.60;65.30;;;;;;4938633;29;20367;-76
2022/05/06 09:10:23;;;;;;;8.52;1.65;;;17.70;65.80;;;;;;4918726;29;20493;-78
2022/05/06 09:12:55;;;;;;;5.63;1.50;;;17.80;65.60;;;;;;4918944;29;20126;-80
2022/05/06 09:18:07;;;;;;;10.55;2.58;;;17.90;65.00;;;;;;4919334;29;20083;-75
2022/05/06 09:20:37;;;;;;;11.90;1.90;;;17.90;64.60;;;;;;4918420;29;20043;-80
2022/05/06 09:23:24;;;;;;;12.57;2.40;;;18.00;64.50;;;;;;4919432;29;20092;-80
2022/05/06 09:25:54;;;;;;;14.13;2.60;;;18.00;64.40;;;;;;4933409;29;20056;-73
2022/05/06 09:28:52;;;;;;;12.38;3.05;;;18.10;64.00;;;;;;4921256;29;20123;-84
2022/05/06 09:31:25;;;;;;;13.60;2.90;;;18.20;64.60;;;;;;4896384;29;20333;-83
2022/05/06 09:33:51;;;;;;;17.08;3.78;;;18.20;64.90;;;;;;4905730;29;20050;-84
2022/05/06 09:36:30;;;;;;;18.90;3.25;;;18.30;64.50;;;;;;4903009;29;20047;-83
2022/05/06 09:39:18;;;;;;;18.30;2.53;;;18.30;64.80;;;;;;4921749;29;20457;-86
2022/05/06 09:42:01;;;;;;;12.60;2.28;;;18.40;64.90;;;;;;4904756;29;20422;-85
2022/05/06 09:44:27;;;;;;;10.57;3.22;;;18.40;64.70;;;;;;4905619;29;20377;-84
2022/05/06 09:47:14;;;;;;;11.13;2.70;;;18.40;64.30;;;;;;4905846;29;20458;-74
2022/05/06 09:49:40;;;;;;;14.70;2.92;;;18.50;64.20;;;;;;4938221;29;20043;-74
2022/05/06 09:52:13;;;;;;;18.95;2.78;;;18.50;64.30;;;;;;4937650;29;20047;-74
2022/05/06 09:54:41;;;;;;;16.67;2.78;;;18.50;64.60;;;;;;4937453;29;20044;-74
2022/05/06 09:57:07;;;;;;;9.73;2.13;;;18.50;64.80;;;;;;4938634;29;20448;-75
2022/05/06 09:59:35;;;;;;;15.20;3.13;;;18.50;65.00;;;;;;4938685;29;20059;-75
2022/05/06 10:02:00;;;;;;;12.75;2.95;;;18.60;65.20;;;;;;4929488;29;20448;-74
2022/05/06 10:04:27;;;;;;;10.55;2.80;;;18.60;64.10;;;;;;4899919;29;20123;-74
2022/05/06 10:06:57;;;;;;;11.55;2.97;;;18.40;63.20;;;;;;4900137;29;20060;-74
2022/05/06 10:09:24;;;;;;;8.93;2.50;;;18.40;63.40;;;;;;4900191;29;20157;-74
2022/05/06 10:11:52;;;;;;;13.20;2.67;;;18.30;63.50;;;;;;4899958;29;20123;-74
2022/05/06 10:14:19;;;;;;;18.80;2.33;;;18.30;63.70;;;;;;4899790;29;20053;-74
2022/05/06 10:16:45;;;;;;;12.60;2.13;;;18.30;63.90;;;;;;4900024;29;20181;-74
2022/05/06 10:19:37;;;;;;;15.00;3.17;;;18.30;63.90;;;;;;4900004;29;20052;-73
2022/05/06 10:22:03;;;;;;;10.95;2.17;;;18.40;64.90;;;;;;4902808;29;20099;-73
2022/05/06 10:24:40;;;;;;;16.88;3.55;;;18.40;64.90;;;;;;4918100;29;20044;-74
2022/05/06 10:33:15;;;;;;;17.58;2.53;;;18.50;65.30;;;;;;4937723;29;20055;-74
2022/05/06 10:35:47;;;;;;;12.15;2.30;;;18.50;65.10;;;;;;4937134;29;20408;-74
2022/05/06 10:38:18;;;;;;;14.98;2.60;;;18.50;65.10;;;;;;4932413;29;20048;-74
2022/05/06 10:40:53;;;;;;;15.98;2.55;;;18.50;65.20;;;;;;4917421;29;20048;-77
2022/05/06 10:43:46;;;;;;;11.27;2.40;;;18.60;65.20;;;;;;4917399;29;20377;-72
2022/05/06 10:46:30;;;;;;;24.48;3.38;;;18.60;65.50;;;;;;4911119;29;20052;-73
2022/05/06 10:49:16;;;;;;;12.93;2.33;;;18.60;66.10;;;;;;4918528;29;20135;-74
2022/05/06 10:51:41;;;;;;;15.50;2.38;;;18.60;66.30;;;;;;4918018;29;20060;-72
2022/05/06 10:54:14;;;;;;;10.02;2.33;;;18.60;67.30;;;;;;4918710;29;20055;-72
2022/05/06 10:56:44;;;;;;;13.60;2.33;;;18.70;68.40;;;;;;4918203;29;20480;-72
2022/05/06 10:59:10;;;;;;;15.23;2.42;;;18.60;68.00;;;;;;4918530;29;20048;-72
2022/05/06 11:01:35;;;;;;;12.55;2.28;;;18.70;67.80;;;;;;4918517;29;20516;-72
2022/05/06 11:04:01;;;;;;;10.02;1.98;;;18.70;68.00;;;;;;4918172;29;20457;-72
2022/05/06 11:06:26;;;;;;;13.07;2.22;;;18.70;68.10;;;;;;4920766;29;20059;-69
2022/05/06 11:08:53;;;;;;;8.75;2.05;;;18.70;68.30;;;;;;4923630;29;20191;-72
2022/05/06 11:11:19;;;;;;;9.27;2.20;;;18.70;68.90;;;;;;4936895;29;20192;-71
2022/05/06 11:13:47;;;;;;;11.30;2.15;;;18.70;69.50;;;;;;4915827;29;20059;-72
2022/05/06 11:16:17;;;;;;;9.45;2.05;;;18.70;70.00;;;;;;4921539;29;20052;-72
2022/05/06 11:18:44;;;;;;;11.93;2.22;;;18.70;69.90;;;;;;4935323;29;20047;-74
2022/05/06 11:21:23;;;;;;;4.45;1.67;;;18.70;70.10;;;;;;4941120;29;20054;-72
2022/05/06 11:23:49;;;;;;;7.07;1.60;;;18.80;70.80;;;;;;4920450;29;20379;-74
2022/05/06 11:26:30;;;;;;;10.00;2.00;;;18.80;70.10;;;;;;4921444;29;20071;-72
2022/05/06 11:29:05;;;;;;;12.88;2.28;;;18.80;70.00;;;;;;4921461;29;20055;-72
2022/05/06 11:31:31;;;;;;;12.95;2.08;;;18.80;69.50;;;;;;4919938;29;20056;-72
2022/05/06 11:34:05;;;;;;;9.63;2.05;;;18.80;69.20;;;;;;4921996;29;20111;-72
2022/05/06 11:36:32;;;;;;;9.48;1.52;;;18.80;68.90;;;;;;4921866;29;20431;-72
2022/05/06 11:38:58;;;;;;;12.50;1.90;;;18.80;69.00;;;;;;4921549;29;20472;-71
2022/05/06 11:41:24;;;;;;;8.07;1.90;;;18.80;68.90;;;;;;4921170;29;20036;-72
2022/05/06 11:43:50;;;;;;;12.70;2.33;;;18.80;68.90;;;;;;4918742;29;20485;-71
2022/05/06 11:49:03;;;;;;;3.42;1.77;;;18.80;66.80;;;;;;4921242;29;20056;-71
2022/05/06 11:51:39;;;;;;;12.50;2.75;;;18.70;66.50;;;;;;4920328;29;20139;-70
2022/05/06 11:54:05;;;;;;;8.20;2.40;;;18.70;65.40;;;;;;4920999;29;20126;-71
2022/05/06 11:56:33;;;;;;;12.50;2.67;;;18.70;66.10;;;;;;4921282;29;20052;-71
2022/05/06 11:59:00;;;;;;;10.27;2.15;;;18.70;66.10;;;;;;4920989;29;20046;-71
2022/05/06 12:01:29;;;;;;;5.55;1.80;;;18.70;66.40;;;;;;4921583;29;20052;-71
2022/05/06 12:04:05;;;;;;;8.23;1.83;;;18.70;66.70;;;;;;4921459;29;20371;-71
2022/05/06 12:06:32;;;;;;;7.53;1.95;;;18.70;67.00;;;;;;4920939;29;20055;-71
2022/05/06 12:09:16;;;;;;;8.05;1.98;;;18.70;66.90;;;;;;4921172;29;20123;-71
2022/05/06 12:11:44;;;;;;;5.45;1.67;;;18.70;66.90;;;;;;4921237;29;20083;-71
2022/05/06 12:14:17;;;;;;;5.63;1.42;;;18.70;66.80;;;;;;4920657;29;20052;-71
2022/05/06 12:16:57;;;;;;;5.95;2.10;;;18.70;66.80;;;;;;4920045;29;20052;-71
2022/05/06 12:19:52;;;;;;;4.82;1.52;;;18.70;66.70;;;;;;4921143;29;20063;-71
2022/05/06 12:22:26;;;;;;;3.65;1.63;;;18.70;66.70;;;;;;4912146;29;20138;-71
2022/05/06 12:25:00;;;;;;;4.35;1.60;;;18.70;66.60;;;;;;4939278;29;20477;-71
2022/05/06 12:27:31;;;;;;;4.03;1.85;;;18.70;66.50;;;;;;4937238;29;20059;-71
2022/05/06 12:30:03;;;;;;;3.60;1.45;;;18.70;66.50;;;;;;4939240;29;20126;-71
2022/05/06 12:32:30;;;;;;;4.55;1.42;;;18.70;66.40;;;;;;4938928;29;20468;-71
2022/05/06 12:35:04;;;;;;;3.92;1.65;;;18.70;66.20;;;;;;4939339;29;20043;-71
2022/05/06 12:37:29;;;;;;;5.80;1.50;;;18.70;66.10;;;;;;4939523;29;20065;-71
2022/05/06 12:39:59;;;;;;;4.40;1.75;;;18.70;66.10;;;;;;4940042;29;20126;-71
2022/05/06 12:42:28;;;;;;;5.25;1.70;;;18.70;66.00;;;;;;4938948;29;20122;-72
2022/05/06 12:44:54;;;;;;;7.15;1.92;;;18.70;66.00;;;;;;4926616;29;20080;-71
2022/05/06 12:50:09;;;;;;;7.63;2.05;;;18.70;65.30;;;;;;4912711;29;20051;-72
2022/05/06 12:52:36;;;;;;;7.25;2.60;;;18.70;65.30;;;;;;4920023;29;20087;-71
2022/05/06 12:55:04;;;;;;;11.75;2.08;;;18.70;65.30;;;;;;4920145;29;20417;-72
2022/05/06 12:57:29;;;;;;;9.02;2.13;;;18.80;65.50;;;;;;4919220;29;20453;-72
2022/05/06 12:59:55;;;;;;;7.90;2.65;;;18.70;65.30;;;;;;4920230;29;20050;-72
2022/05/06 13:02:21;;;;;;;6.70;1.85;;;18.70;65.20;;;;;;4934679;29;20514;-71
2022/05/06 13:04:47;;;;;;;4.80;2.35;;;18.80;65.20;;;;;;4919514;29;20059;-72
2022/05/06 13:07:16;;;;;;;7.05;1.65;;;18.70;65.20;;;;;;4918584;29;20059;-72
2022/05/06 13:09:42;;;;;;;5.82;1.98;;;18.80;65.20;;;;;;4918720;29;20059;-73
2022/05/06 13:12:09;;;;;;;5.68;2.80;;;18.80;64.80;;;;;;4919627;29;20044;-73
2022/05/06 13:14:35;;;;;;;5.68;2.72;;;18.80;64.10;;;;;;4919620;29;20051;-72
2022/05/06 13:17:02;;;;;;;5.68;3.13;;;18.80;64.40;;;;;;4919695;29;20460;-73
2022/05/06 13:19:31;;;;;;;9.38;2.75;;;18.80;64.00;;;;;;4919745;29;20088;-74
2022/05/06 13:21:57;;;;;;;5.97;3.17;;;18.80;63.90;;;;;;4919938;29;20137;-73
2022/05/06 13:24:23;;;;;;;4.20;2.47;;;18.70;64.00;;;;;;4919679;29;20048;-73
2022/05/06 13:26:49;;;;;;;4.80;2.75;;;18.80;64.10;;;;;;4919115;29;20441;-72
2022/05/06 13:29:15;;;;;;;5.10;3.15;;;18.80;64.10;;;;;;4919055;29;20052;-72
2022/05/06 13:31:41;;;;;;;5.70;3.10;;;18.80;64.00;;;;;;4919621;29;20112;-72
2022/05/06 13:34:07;;;;;;;6.30;2.55;;;18.70;63.90;;;;;;4936239;29;20063;-73
2022/05/06 13:36:33;;;;;;;3.67;2.08;;;18.70;64.00;;;;;;4938563;29;20048;-78
2022/05/06 13:38:59;;;;;;;7.45;2.95;;;18.80;64.00;;;;;;4937973;29;20070;-71
2022/05/06 13:41:25;;;;;;;8.10;3.22;;;18.80;64.00;;;;;;4927307;29;20456;-72
2022/05/06 13:43:52;;;;;;;9.43;2.75;;;18.80;63.90;;;;;;4921845;29;20047;-72
2022/05/06 13:46:18;;;;;;;19.63;3.15;;;18.80;64.10;;;;;;4938311;29;20079;-72
2022/05/06 13:48:44;;;;;;;22.95;4.07;;;18.80;64.30;;;;;;4921267;29;20441;-76
2022/05/06 13:51:10;;;;;;;13.18;3.80;;;18.80;64.70;;;;;;4938514;29;20055;-76
2022/05/06 13:53:35;;;;;;;14.48;3.67;;;18.80;64.60;;;;;;4937493;29;20051;-72
2022/05/06 13:59:06;;;;;;;16.10;4.43;;;18.90;64.20;;;;;;4937949;29;20130;-73
2022/05/06 14:01:33;;;;;;;15.27;3.53;;;18.90;64.30;;;;;;4932134;29;20048;-73
2022/05/06 14:04:00;;;;;;;14.73;3.42;;;18.80;64.20;;;;;;4917819;29;20102;-72
2022/05/06 14:06:26;;;;;;;11.38;3.65;;;18.80;64.50;;;;;;4918879;29;20119;-74
2022/05/06 14:08:52;;;;;;;11.45;3.20;;;18.80;64.60;;;;;;4919050;29;20060;-74
2022/05/06 14:11:18;;;;;;;8.77;3.33;;;18.90;64.60;;;;;;4918982;29;20122;-74
2022/05/06 14:13:44;;;;;;;6.72;3.05;;;18.90;64.40;;;;;;4919100;29;20465;-75
2022/05/06 14:16:10;;;;;;;14.90;3.85;;;18.90;64.30;;;;;;4918339;29;20500;-74
2022/05/06 14:18:36;;;;;;;10.02;3.40;;;18.90;64.20;;;;;;4918736;29;20048;-74
2022/05/06 14:21:02;;;;;;;8.70;2.95;;;18.90;64.30;;;;;;4919048;29;20067;-74
2022/05/06 14:23:28;;;;;;;7.43;2.80;;;18.90;64.30;;;;;;4918547;29;20052;-74
2022/05/06 14:25:56;;;;;;;5.88;2.60;;;18.90;64.30;;;;;;4918187;29;20488;-74
2022/05/06 14:28:22;;;;;;;9.50;3.00;;;18.90;64.30;;;;;;4918528;29;20055;-76
2022/05/06 14:30:48;;;;;;;7.18;3.63;;;18.90;64.40;;;;;;4917943;29;20052;-74
2022/05/06 14:33:16;;;;;;;10.23;3.70;;;18.90;64.40;;;;;;4918559;29;20048;-71
2022/05/06 14:35:46;;;;;;;7.13;3.70;;;18.90;64.40;;;;;;4918643;29;20142;-72
2022/05/06 14:38:11;;;;;;;8.65;3.85;;;18.90;64.40;;;;;;4918275;29;20052;-73
2022/05/06 14:40:37;;;;;;;13.18;6.50;;;18.90;64.90;;;;;;4917481;29;20056;-70
2022/05/06 14:43:03;;;;;;;10.23;5.85;;;18.90;64.30;;;;;;4920831;29;20072;-71
2022/05/06 14:45:29;;;;;;;8.20;4.55;;;18.90;64.30;;;;;;4911555;29;20048;-74
2022/05/06 14:47:56;;;;;;;13.07;6.03;;;18.90;64.40;;;;;;4922672;29;20052;-79
2022/05/06 14:50:22;;;;;;;10.27;5.80;;;18.90;64.40;;;;;;4922152;29;20056;-75
2022/05/06 14:52:50;;;;;;;14.77;7.57;;;19.00;63.80;;;;;;4914572;29;20129;-72
2022/05/06 14:55:16;;;;;;;20.13;9.40;;;19.00;63.20;;;;;;4917343;29;20131;-76
2022/05/06 14:57:42;;;;;;;31.48;19.08;;;19.00;63.50;;;;;;4923361;29;20131;-73
2022/05/06 15:00:10;;;;;;;25.42;15.68;;;19.00;64.60;;;;;;4941331;29;20329;-75
2022/05/06 15:02:36;;;;;;;18.63;11.85;;;19.00;65.60;;;;;;4940908;29;20051;-71
2022/05/06 15:05:03;;;;;;;13.02;8.32;;;19.00;66.00;;;;;;4941119;29;20111;-71
2022/05/06 15:07:28;;;;;;;22.92;11.68;;;19.10;65.30;;;;;;4941219;29;20051;-72
2022/05/06 15:09:54;;;;;;;19.40;11.57;;;19.10;65.10;;;;;;4927195;29;20056;-75
2022/05/06 15:12:20;;;;;;;20.27;12.68;;;19.10;64.80;;;;;;4902246;29;20143;-73
2022/05/06 15:14:46;;;;;;;13.90;10.75;;;19.10;65.40;;;;;;4901918;29;20070;-72
2022/05/06 15:17:15;;;;;;;16.80;9.13;;;19.20;66.10;;;;;;4903314;29;20053;-72
2022/05/06 15:19:45;;;;;;;18.35;9.45;;;19.20;65.70;;;;;;4902941;29;20092;-72
2022/05/06 15:22:12;;;;;;;12.30;8.65;;;19.20;65.50;;;;;;4903206;29;20053;-72
2022/05/06 15:24:39;;;;;;;15.75;8.45;;;19.30;65.80;;;;;;4903027;29;20053;-73
2022/05/06 15:27:05;;;;;;;11.38;7.15;;;19.20;65.80;;;;;;4903037;29;20052;-73
2022/05/06 15:29:32;;;;;;;17.98;7.35;;;19.30;65.90;;;;;;4902620;29;20084;-73
2022/05/06 15:31:59;;;;;;;24.48;7.72;;;19.20;65.80;;;;;;4902801;29;20088;-72
2022/05/06 15:34:24;;;;;;;15.95;6.93;;;19.20;66.00;;;;;;4902940;29;20375;-71
2022/05/06 15:36:50;;;;;;;15.48;6.65;;;19.30;66.00;;;;;;4903413;29;20112;-72
2022/05/06 15:39:16;;;;;;;14.48;5.88;;;19.20;66.00;;;;;;4901370;29;20067;-72
2022/05/06 15:41:42;;;;;;;17.67;6.10;;;19.30;66.10;;;;;;4903046;29;20448;-72
2022/05/06 15:44:08;;;;;;;22.55;6.45;;;19.30;66.20;;;;;;4902511;29;20053;-72
2022/05/06 15:46:35;;;;;;;17.45;5.43;;;19.30;66.20;;;;;;4902569;29;20124;-72
2022/05/06 15:49:01;;;;;;;21.15;5.32;;;19.30;66.20;;;;;;4902448;29;20045;-72
2022/05/06 15:51:28;;;;;;;20.33;4.78;;;19.30;66.30;;;;;;4918411;29;20052;-72
2022/05/06 15:53:54;;;;;;;15.98;4.35;;;19.30;66.20;;;;;;4921362;29;20044;-72
2022/05/06 15:56:19;;;;;;;13.73;4.47;;;19.30;66.20;;;;;;4920983;29;20376;-72
2022/05/06 15:58:45;;;;;;;14.77;4.30;;;19.30;66.20;;;;;;4921723;29;20051;-72
2022/05/06 16:01:11;;;;;;;11.75;4.00;;;19.30;66.10;;;;;;4919924;29;20051;-72
2022/05/06 16:03:37;;;;;;;13.43;3.63;;;19.30;66.10;;;;;;4901997;29;20117;-72
2022/05/06 16:06:03;;;;;;;15.60;3.83;;;19.40;66.10;;;;;;4902466;29;20131;-73
2022/05/06 16:08:28;;;;;;;14.20;4.05;;;19.30;66.10;;;;;;4902014;29;20052;-73
2022/05/06 16:10:54;;;;;;;21.20;4.45;;;19.30;66.10;;;;;;4902762;29;20207;-72
2022/05/06 16:13:24;;;;;;;20.08;4.45;;;19.40;66.10;;;;;;4901990;29;20423;-72
2022/05/06 16:15:50;;;;;;;16.35;4.20;;;19.30;66.00;;;;;;4902543;29;20052;-72
2022/05/06 16:18:16;;;;;;;16.38;3.60;;;19.40;66.10;;;;;;4902499;29;20452;-72
2022/05/06 16:20:42;;;;;;;20.67;3.88;;;19.30;66.00;;;;;;4902082;29;20470;-72
2022/05/06 16:23:08;;;;;;;24.88;5.25;;;19.30;66.00;;;;;;4902041;29;20056;-79
2022/05/06 16:25:41;;;;;;;10.85;5.88;;;19.40;65.70;;;;;;4906599;29;20056;-80
2022/05/06 16:28:12;;;;;;;12.48;7.85;;;19.40;64.10;;;;;;4903622;29;20433;-73
2022/05/06 16:30:38;;;;;;;12.23;8.13;;;19.40;61.60;;;;;;4920430;29;20456;-77
2022/05/06 16:33:05;;;;;;;10.07;7.85;;;19.40;60.50;;;;;;4920693;29;20044;-72
2022/05/06 16:38:19;;;;;;;10.65;6.32;;;19.40;59.70;;;;;;4898246;29;20052;-76
2022/05/06 16:40:45;;;;;;;9.10;5.97;;;19.40;60.00;;;;;;4899375;29;20133;-75
2022/05/06 16:43:12;;;;;;;8.85;5.65;;;19.40;60.50;;;;;;4900877;29;20052;-75
2022/05/06 16:45:40;;;;;;;7.72;5.00;;;19.40;60.80;;;;;;4901253;29;20481;-75
2022/05/06 16:48:09;;;;;;;10.10;5.53;;;19.40;61.00;;;;;;4901413;29;20385;-75
2022/05/06 16:50:35;;;;;;;8.48;4.82;;;19.30;61.30;;;;;;4900816;29;20361;-76
2022/05/06 16:53:02;;;;;;;7.30;4.93;;;19.40;61.50;;;;;;4901195;29;20056;-75
2022/05/06 16:55:30;;;;;;;7.05;4.53;;;19.30;61.70;;;;;;4901100;29;20358;-75
2022/05/06 16:57:56;;;;;;;7.57;4.40;;;19.40;61.90;;;;;;4901652;29;20060;-76
2022/05/06 17:00:22;;;;;;;7.43;4.07;;;19.40;62.00;;;;;;4901282;29;20094;-75
2022/05/06 17:02:49;;;;;;;5.90;4.03;;;19.40;62.10;;;;;;4900907;29;20044;-76
2022/05/06 17:05:16;;;;;;;9.15;4.25;;;19.50;62.30;;;;;;4900859;29;20088;-75
2022/05/06 17:07:42;;;;;;;7.82;4.10;;;19.40;62.40;;;;;;4900855;29;20044;-75
2022/05/06 17:10:13;;;;;;;7.88;4.50;;;19.50;62.60;;;;;;4901527;29;20052;-75
2022/05/06 17:12:42;;;;;;;5.90;3.63;;;19.50;62.80;;;;;;4901286;29;20044;-75
2022/05/06 17:15:11;;;;;;;7.50;3.45;;;19.50;63.00;;;;;;4899881;29;20123;-75
2022/05/06 17:17:36;;;;;;;8.52;3.72;;;19.50;63.10;;;;;;4917941;29;20492;-75
2022/05/06 17:20:02;;;;;;;4.78;3.53;;;19.50;63.30;;;;;;4918524;29;20093;-76
2022/05/06 17:22:28;;;;;;;5.80;3.58;;;19.50;63.40;;;;;;4919862;29;20158;-76
2022/05/06 17:24:54;;;;;;;11.55;3.97;;;19.50;63.40;;;;;;4919428;29;20127;-76
2022/05/06 17:27:20;;;;;;;6.07;3.78;;;19.50;63.50;;;;;;4920030;29;20052;-76
2022/05/06 17:29:46;;;;;;;7.43;4.15;;;19.50;63.50;;;;;;4918619;29;20062;-76
2022/05/06 17:32:12;;;;;;;7.45;3.90;;;19.50;63.30;;;;;;4918728;29;20060;-76
2022/05/06 17:34:38;;;;;;;6.13;3.92;;;19.50;63.20;;;;;;4919086;29;20099;-77
2022/05/06 17:37:04;;;;;;;9.60;5.95;;;19.50;63.20;;;;;;4919187;29;20052;-77
2022/05/06 17:39:30;;;;;;;13.77;7.05;;;19.50;62.60;;;;;;4919536;29;20059;-77
2022/05/06 17:41:56;;;;;;;9.48;6.13;;;19.50;62.30;;;;;;4917564;29;20051;-78
2022/05/06 17:44:21;;;;;;;9.93;6.15;;;19.50;62.60;;;;;;4919444;29;20052;-76
2022/05/06 17:46:47;;;;;;;10.10;5.85;;;19.40;62.80;;;;;;4919320;29;20078;-76
2022/05/06 17:49:13;;;;;;;16.75;4.70;;;19.40;63.10;;;;;;4919039;29;20055;-76
2022/05/06 17:51:39;;;;;;;8.43;3.95;;;19.40;63.20;;;;;;4919279;29;20054;-76
2022/05/06 17:54:06;;;;;;;10.50;4.05;;;19.40;63.50;;;;;;4919954;29;20445;-76
2022/05/06 17:56:35;;;;;;;9.15;5.00;;;19.40;63.70;;;;;;4919022;29;20052;-75
2022/05/06 17:59:02;;;;;;;7.90;4.45;;;19.40;63.80;;;;;;4919219;29;20071;-75
2022/05/06 18:01:27;;;;;;;11.32;5.05;;;19.40;63.80;;;;;;4920518;29;20393;-75
2022/05/06 18:03:58;;;;;;;7.00;4.85;;;19.30;63.70;;;;;;4918369;29;20044;-75
2022/05/06 18:06:29;;;;;;;9.73;5.40;;;19.30;63.80;;;;;;4918154;29;20052;-76
2022/05/06 18:08:55;;;;;;;7.70;5.20;;;19.30;63.90;;;;;;4919075;29;20425;-75
2022/05/06 18:11:22;;;;;;;10.30;5.80;;;19.30;63.90;;;;;;4918989;29;20543;-76
2022/05/06 18:13:48;;;;;;;10.45;6.32;;;19.30;63.90;;;;;;4933288;29;20040;-76
2022/05/06 18:16:15;;;;;;;15.07;9.90;;;19.30;63.90;;;;;;4918521;29;20063;-76
2022/05/06 18:18:42;;;;;;;12.85;8.73;;;19.30;63.90;;;;;;4918364;29;20052;-75
2022/05/06 18:21:08;;;;;;;10.50;7.18;;;19.30;63.90;;;;;;4919110;29;20044;-75
2022/05/06 18:23:35;;;;;;;14.45;9.10;;;19.30;63.90;;;;;;4919413;29;20059;-76
2022/05/06 18:26:07;;;;;;;7.95;6.47;;;19.30;63.90;;;;;;4918638;29;20064;-76
2022/05/06 18:28:34;;;;;;;8.38;5.70;;;19.30;63.80;;;;;;4930508;29;20114;-75
2022/05/06 18:31:00;;;;;;;9.00;5.60;;;19.20;63.70;;;;;;4934152;29;20357;-76
2022/05/06 18:33:26;;;;;;;7.93;6.20;;;19.20;63.70;;;;;;4937563;29;20047;-76
2022/05/06 18:35:56;;;;;;;8.38;6.20;;;19.20;63.70;;;;;;4937634;29;20130;-76
2022/05/06 18:38:28;;;;;;;8.02;5.25;;;19.20;63.70;;;;;;4937961;29;20166;-75
2022/05/06 18:40:54;;;;;;;11.43;7.97;;;19.20;63.70;;;;;;4937775;29;20058;-75
2022/05/06 18:43:21;;;;;;;12.63;9.13;;;19.20;63.80;;;;;;4937305;29;20040;-75
2022/05/06 18:45:47;;;;;;;10.35;6.78;;;19.20;64.00;;;;;;4937452;29;20047;-76
2022/05/06 18:48:15;;;;;;;10.10;7.18;;;19.20;63.90;;;;;;4937427;29;20164;-76
2022/05/06 18:50:42;;;;;;;10.10;6.50;;;19.20;64.00;;;;;;4937570;29;20163;-76